createdAt,value
2024-01-31T00:01:53.529Z,0.57
2024-01-31T00:04:22.305Z,0.57
2024-01-31T00:06:52.511Z,0.60
2024-01-31T00:11:48.840Z,0.40
2024-01-31T00:14:19.445Z,0.52
2024-01-31T00:16:49.192Z,0.50
2024-01-31T00:19:17.837Z,0.57
2024-01-31T00:21:49.306Z,0.50
2024-01-31T00:24:21.376Z,0.57
2024-01-31T00:26:51.586Z,0.73
2024-01-31T00:29:20.262Z,0.95
2024-01-31T00:31:51.509Z,0.93
2024-01-31T00:34:20.472Z,0.60
2024-01-31T00:36:49.108Z,0.75
2024-01-31T00:39:17.394Z,1.20
2024-01-31T00:41:47.080Z,1.30
2024-01-31T00:44:15.574Z,0.75
2024-01-31T00:46:46.259Z,0.95
2024-01-31T00:49:18.551Z,0.57
2024-01-31T00:51:48.689Z,0.63
2024-01-31T00:54:19.536Z,0.63
2024-01-31T00:56:48.038Z,1.00
2024-01-31T00:59:16.396Z,0.52
2024-01-31T01:01:45.086Z,0.50
2024-01-31T01:04:17.997Z,0.40
2024-01-31T01:06:46.714Z,0.63
2024-01-31T01:09:16.426Z,0.30
2024-01-31T01:11:47.626Z,0.47
2024-01-31T01:14:20.398Z,0.50
2024-01-31T01:16:48.831Z,0.60
2024-01-31T01:19:21.425Z,0.38
2024-01-31T01:21:50.835Z,0.80
2024-01-31T01:24:20.824Z,0.38
2024-01-31T01:26:49.240Z,0.88
2024-01-31T01:29:17.581Z,0.50
2024-01-31T01:31:46.968Z,0.68
2024-01-31T01:34:16.778Z,0.63
2024-01-31T01:36:46.803Z,0.35
2024-01-31T01:39:15.184Z,0.35
2024-01-31T01:41:44.664Z,0.40
2024-01-31T01:44:17.910Z,0.95
2024-01-31T01:46:47.102Z,0.52
2024-01-31T01:49:17.314Z,0.67
2024-01-31T01:51:47.398Z,0.50
2024-01-31T01:54:16.076Z,0.77
2024-01-31T01:56:48.301Z,0.40
2024-01-31T01:59:16.813Z,0.38
2024-01-31T02:01:47.210Z,0.50
2024-01-31T02:04:16.326Z,0.52
2024-01-31T02:06:45.643Z,0.45
2024-01-31T02:09:15.986Z,0.50
2024-01-31T02:11:44.364Z,0.95
2024-01-31T02:14:12.676Z,0.40
2024-01-31T02:16:43.775Z,0.50
2024-01-31T02:19:12.446Z,0.43
2024-01-31T02:21:44.158Z,0.20
2024-01-31T02:24:14.184Z,0.22
2024-01-31T02:26:43.067Z,0.50
2024-01-31T02:29:13.266Z,0.32
2024-01-31T02:31:44.847Z,0.20
2024-01-31T02:34:13.276Z,0.55
2024-01-31T02:36:42.059Z,0.63
2024-01-31T02:39:10.268Z,0.47
2024-01-31T02:41:40.068Z,0.35
2024-01-31T02:44:08.358Z,0.35
2024-01-31T02:46:39.630Z,0.50
2024-01-31T02:49:09.687Z,0.40
2024-01-31T02:54:09.313Z,0.57
2024-01-31T02:56:39.041Z,0.50
2024-01-31T02:59:08.994Z,0.57
2024-01-31T03:01:38.527Z,0.80
2024-01-31T03:04:08.549Z,0.43
2024-01-31T03:09:05.353Z,0.10
2024-01-31T03:11:33.650Z,0.98
2024-01-31T03:14:03.916Z,0.45
2024-01-31T03:16:41.553Z,0.25
2024-01-31T03:19:10.961Z,0.28
2024-01-31T03:21:39.964Z,0.52
2024-01-31T03:24:08.421Z,0.52
2024-01-31T03:26:39.612Z,0.57
2024-01-31T03:29:09.574Z,0.40
2024-01-31T03:34:09.900Z,1.25
2024-01-31T03:36:38.882Z,0.30
2024-01-31T03:39:09.126Z,0.50
2024-01-31T03:41:37.651Z,0.68
2024-01-31T03:44:07.916Z,0.45
2024-01-31T03:46:36.527Z,0.57
2024-01-31T03:49:09.288Z,0.60
2024-01-31T03:51:40.254Z,0.40
2024-01-31T03:54:08.777Z,0.50
2024-01-31T03:56:39.642Z,0.30
2024-01-31T03:59:10.645Z,0.70
2024-01-31T04:01:39.000Z,0.38
2024-01-31T04:04:08.971Z,0.08
2024-01-31T04:06:37.590Z,0.68
2024-01-31T04:09:07.742Z,1.17
2024-01-31T04:14:07.723Z,0.20
2024-01-31T04:16:36.286Z,0.38
2024-01-31T04:19:04.845Z,0.60
2024-01-31T04:21:37.651Z,0.40
2024-01-31T04:24:06.843Z,0.40
2024-01-31T04:26:35.566Z,0.67
2024-01-31T04:29:03.852Z,0.85
2024-01-31T04:31:32.237Z,0.52
2024-01-31T04:34:01.516Z,0.38
2024-01-31T04:36:29.877Z,0.38
2024-01-31T04:38:59.761Z,0.38
2024-01-31T04:41:29.265Z,1.02
2024-01-31T04:43:57.594Z,0.65
2024-01-31T04:46:25.845Z,0.47
2024-01-31T04:48:54.247Z,0.35
2024-01-31T04:51:22.821Z,0.60
2024-01-31T04:53:54.098Z,0.38
2024-01-31T04:56:23.785Z,0.43
2024-01-31T04:58:52.173Z,0.43
2024-01-31T05:01:20.483Z,0.50
2024-01-31T05:03:49.148Z,0.60
2024-01-31T05:06:17.539Z,0.20
2024-01-31T05:08:46.153Z,0.43
2024-01-31T05:11:15.741Z,0.30
2024-01-31T05:13:47.369Z,0.47
2024-01-31T05:16:16.429Z,0.20
2024-01-31T05:18:44.838Z,0.35
2024-01-31T05:21:14.230Z,0.38
2024-01-31T05:23:43.247Z,0.93
2024-01-31T05:26:12.439Z,0.70
2024-01-31T05:28:44.869Z,0.43
2024-01-31T05:31:17.238Z,0.52
2024-01-31T05:33:45.768Z,0.30
2024-01-31T05:36:15.244Z,0.57
2024-01-31T05:38:43.690Z,0.40
2024-01-31T05:41:13.914Z,0.60
2024-01-31T05:43:42.472Z,0.50
2024-01-31T05:46:12.171Z,0.10
2024-01-31T05:48:42.307Z,0.70
2024-01-31T05:51:10.927Z,0.45
2024-01-31T05:53:40.705Z,0.40
2024-01-31T05:56:09.582Z,0.30
2024-01-31T05:58:37.975Z,0.15
2024-01-31T06:01:07.074Z,0.55
2024-01-31T06:03:35.575Z,0.40
2024-01-31T06:06:06.138Z,0.65
2024-01-31T06:08:35.635Z,0.40
2024-01-31T06:11:09.859Z,0.60
2024-01-31T06:13:38.726Z,0.52
2024-01-31T06:16:11.776Z,0.80
2024-01-31T06:18:40.189Z,0.60
2024-01-31T06:21:10.183Z,0.50
2024-01-31T06:23:43.567Z,0.45
2024-01-31T06:26:13.681Z,0.57
2024-01-31T06:28:47.121Z,0.32
2024-01-31T06:31:26.109Z,0.75
2024-01-31T06:33:54.554Z,0.07
2024-01-31T06:36:24.384Z,0.88
2024-01-31T06:38:53.155Z,0.20
2024-01-31T06:41:22.857Z,0.40
2024-01-31T06:43:52.764Z,0.43
2024-01-31T06:46:21.080Z,0.38
2024-01-31T06:48:52.262Z,0.75
2024-01-31T06:51:22.018Z,0.40
2024-01-31T06:53:52.130Z,0.50
2024-01-31T06:58:50.934Z,0.32
2024-01-31T07:01:19.840Z,0.15
2024-01-31T07:03:48.433Z,0.22
2024-01-31T07:06:17.455Z,0.30
2024-01-31T07:08:45.824Z,0.60
2024-01-31T07:11:18.319Z,0.40
2024-01-31T07:13:46.981Z,0.88
2024-01-31T07:16:18.647Z,0.47
2024-01-31T07:18:48.099Z,0.55
2024-01-31T07:21:27.045Z,0.63
2024-01-31T07:23:55.704Z,0.08
2024-01-31T07:26:27.972Z,0.55
2024-01-31T07:28:56.750Z,0.63
2024-01-31T07:31:25.168Z,0.10
2024-01-31T07:33:53.572Z,0.10
2024-01-31T07:36:21.926Z,0.70
2024-01-31T07:38:50.174Z,0.40
2024-01-31T07:41:18.821Z,0.55
2024-01-31T07:43:49.016Z,0.43
2024-01-31T07:46:17.751Z,1.20
2024-01-31T07:48:49.085Z,0.70
2024-01-31T07:51:18.124Z,0.40
2024-01-31T07:53:46.465Z,0.43
2024-01-31T07:56:14.778Z,0.50
2024-01-31T07:58:44.420Z,0.65
2024-01-31T08:01:16.596Z,0.40
2024-01-31T08:03:45.515Z,0.60
2024-01-31T08:06:13.891Z,0.00
2024-01-31T08:08:46.651Z,0.50
2024-01-31T08:11:15.366Z,0.77
2024-01-31T08:13:44.301Z,0.30
2024-01-31T08:16:16.977Z,0.30
2024-01-31T08:18:46.788Z,0.35
2024-01-31T08:21:15.375Z,0.68
2024-01-31T08:23:44.074Z,0.50
2024-01-31T08:26:20.883Z,0.65
2024-01-31T08:28:56.447Z,0.75
2024-01-31T08:31:32.849Z,0.52
2024-01-31T08:34:01.941Z,0.20
2024-01-31T08:36:30.278Z,0.60
2024-01-31T08:38:59.050Z,0.20
2024-01-31T08:41:28.669Z,0.73
2024-01-31T08:43:58.204Z,0.35
2024-01-31T08:46:29.824Z,0.45
2024-01-31T08:49:02.423Z,0.40
2024-01-31T08:51:32.032Z,0.82
2024-01-31T08:54:00.306Z,0.68
2024-01-31T08:56:29.471Z,0.52
2024-01-31T08:58:57.826Z,1.02
2024-01-31T09:01:29.391Z,0.93
2024-01-31T09:03:59.179Z,0.65
2024-01-31T09:06:31.437Z,0.50
2024-01-31T09:08:59.729Z,0.57
2024-01-31T09:11:27.984Z,1.15
2024-01-31T09:13:56.954Z,0.50
2024-01-31T09:16:25.288Z,0.57
2024-01-31T09:18:54.506Z,0.40
2024-01-31T09:21:25.172Z,0.60
2024-01-31T09:23:55.760Z,0.60
2024-01-31T09:26:24.117Z,0.68
2024-01-31T09:28:52.905Z,0.77
2024-01-31T09:31:25.066Z,0.70
2024-01-31T09:33:55.741Z,0.43
2024-01-31T09:36:24.994Z,0.85
2024-01-31T09:38:57.376Z,0.50
2024-01-31T09:41:27.683Z,0.90
2024-01-31T09:43:57.586Z,1.02
2024-01-31T09:46:28.911Z,0.57
2024-01-31T09:48:57.942Z,0.55
2024-01-31T09:51:30.443Z,0.93
2024-01-31T09:54:02.580Z,0.90
2024-01-31T09:56:34.003Z,0.10
2024-01-31T09:59:06.991Z,1.08
2024-01-31T10:01:36.617Z,0.50
2024-01-31T10:04:10.020Z,0.65
2024-01-31T10:06:38.638Z,0.70
2024-01-31T10:09:09.614Z,0.55
2024-01-31T10:11:39.676Z,1.08
2024-01-31T10:16:38.065Z,0.10
2024-01-31T10:19:07.105Z,0.32
2024-01-31T10:21:35.914Z,0.82
2024-01-31T10:24:08.085Z,0.50
2024-01-31T10:26:38.276Z,0.88
2024-01-31T10:31:42.084Z,1.02
2024-01-31T10:34:13.955Z,0.65
2024-01-31T10:39:35.209Z,1.10
2024-01-31T10:42:04.623Z,0.95
2024-01-31T10:44:36.011Z,0.50
2024-01-31T10:47:04.439Z,0.43
2024-01-31T10:49:34.208Z,0.63
2024-01-31T10:52:06.505Z,0.68
2024-01-31T10:54:44.122Z,0.55
2024-01-31T10:57:13.535Z,1.00
2024-01-31T10:59:45.411Z,1.17
2024-01-31T11:02:19.193Z,0.88
2024-01-31T11:04:47.880Z,0.95
2024-01-31T11:07:21.874Z,1.05
2024-01-31T11:09:52.176Z,0.88
2024-01-31T11:12:23.019Z,0.47
2024-01-31T11:14:54.548Z,0.73
2024-01-31T11:17:24.932Z,0.73
2024-01-31T11:19:57.268Z,1.15
2024-01-31T11:22:26.263Z,1.05
2024-01-31T11:25:00.790Z,0.82
2024-01-31T11:27:29.875Z,1.65
2024-01-31T11:29:58.393Z,2.17
2024-01-31T11:32:28.484Z,1.52
2024-01-31T11:37:31.874Z,2.58
2024-01-31T11:40:03.584Z,3.70
2024-01-31T11:42:32.183Z,6.45
2024-01-31T11:45:01.094Z,4.43
2024-01-31T11:47:31.362Z,1.25
2024-01-31T11:50:03.870Z,3.55
2024-01-31T11:52:33.071Z,1.30
2024-01-31T11:55:03.091Z,2.10
2024-01-31T11:57:32.026Z,1.58
2024-01-31T12:00:01.058Z,1.45
2024-01-31T12:02:30.449Z,0.50
2024-01-31T12:05:07.522Z,0.40
2024-01-31T12:07:38.575Z,0.40
2024-01-31T12:10:11.320Z,0.43
2024-01-31T12:12:43.290Z,0.80
2024-01-31T12:15:14.920Z,0.60
2024-01-31T12:17:47.766Z,0.73
2024-01-31T12:20:20.646Z,0.68
2024-01-31T12:22:48.970Z,0.73
2024-01-31T12:25:19.846Z,0.43
2024-01-31T12:27:48.713Z,0.60
2024-01-31T12:30:17.793Z,0.40
2024-01-31T12:32:47.730Z,0.43
2024-01-31T12:35:16.565Z,0.85
2024-01-31T12:37:45.576Z,0.57
2024-01-31T12:40:14.878Z,0.70
2024-01-31T12:42:47.455Z,0.50
2024-01-31T12:45:16.326Z,0.50
2024-01-31T12:47:46.901Z,0.77
2024-01-31T12:50:17.203Z,0.80
2024-01-31T12:52:46.291Z,0.57
2024-01-31T12:55:15.926Z,0.80
2024-01-31T12:57:45.617Z,1.27
2024-01-31T13:00:16.264Z,0.52
2024-01-31T13:02:47.554Z,0.63
2024-01-31T13:05:16.530Z,0.77
2024-01-31T13:07:45.351Z,0.50
2024-01-31T13:10:14.407Z,0.70
2024-01-31T13:12:45.550Z,0.40
2024-01-31T13:15:15.294Z,0.32
2024-01-31T13:17:44.009Z,0.50
2024-01-31T13:20:13.544Z,0.43
2024-01-31T13:22:43.069Z,0.30
2024-01-31T13:25:11.417Z,0.70
2024-01-31T13:27:41.676Z,1.33
2024-01-31T13:30:13.571Z,0.60
2024-01-31T13:32:42.522Z,0.85
2024-01-31T13:35:11.332Z,1.48
2024-01-31T13:37:45.170Z,1.55
2024-01-31T13:40:14.273Z,1.83
2024-01-31T13:42:43.837Z,0.93
2024-01-31T13:45:17.206Z,0.80
2024-01-31T13:47:47.011Z,0.80
2024-01-31T13:50:15.915Z,0.50
2024-01-31T13:52:44.609Z,0.32
2024-01-31T13:55:13.182Z,0.60
2024-01-31T13:57:42.520Z,0.70
2024-01-31T14:00:12.918Z,1.10
2024-01-31T14:02:44.195Z,0.63
2024-01-31T14:05:15.325Z,0.65
2024-01-31T14:07:46.679Z,1.23
2024-01-31T14:10:16.990Z,0.77
2024-01-31T14:12:49.858Z,1.35
2024-01-31T14:15:21.827Z,1.23
2024-01-31T14:17:53.934Z,1.20
2024-01-31T14:20:24.248Z,1.10
2024-01-31T14:23:04.670Z,0.57
2024-01-31T14:25:47.715Z,0.80
2024-01-31T14:28:16.176Z,1.13
2024-01-31T14:30:44.749Z,0.60
2024-01-31T14:33:14.889Z,1.58
2024-01-31T14:35:43.931Z,0.80
2024-01-31T14:38:12.273Z,0.77
2024-01-31T14:40:41.707Z,1.20
2024-01-31T14:43:10.372Z,1.00
2024-01-31T14:45:40.695Z,1.17
2024-01-31T14:48:09.730Z,1.27
2024-01-31T14:50:39.797Z,1.23
2024-01-31T14:53:08.219Z,1.52
2024-01-31T14:55:39.193Z,1.58
2024-01-31T14:58:07.987Z,1.08
2024-01-31T15:00:36.384Z,1.13
2024-01-31T15:03:04.733Z,1.83
2024-01-31T15:05:34.025Z,1.00
2024-01-31T15:08:04.564Z,0.88
2024-01-31T15:10:37.507Z,1.30
2024-01-31T15:13:13.362Z,1.00
2024-01-31T15:15:42.124Z,0.90
2024-01-31T15:18:10.590Z,0.65
2024-01-31T15:20:39.512Z,0.95
2024-01-31T15:23:09.330Z,1.08
2024-01-31T15:25:39.626Z,0.70
2024-01-31T15:28:08.038Z,1.30
2024-01-31T15:30:37.042Z,1.00
2024-01-31T15:33:12.442Z,0.55
2024-01-31T15:35:41.234Z,0.30
2024-01-31T15:38:13.491Z,1.20
2024-01-31T15:40:42.814Z,0.88
2024-01-31T15:43:11.066Z,0.95
2024-01-31T15:45:39.345Z,1.35
2024-01-31T15:48:08.302Z,0.80
2024-01-31T15:50:36.812Z,0.93
2024-01-31T15:53:05.637Z,1.17
2024-01-31T15:55:35.633Z,1.08
2024-01-31T15:58:10.048Z,0.50
2024-01-31T16:00:38.757Z,1.25
2024-01-31T16:03:09.053Z,1.00
2024-01-31T16:05:37.613Z,0.57
2024-01-31T16:08:20.531Z,0.98
2024-01-31T16:10:57.087Z,0.47
2024-01-31T16:13:27.482Z,0.73
2024-01-31T16:16:08.607Z,0.80
2024-01-31T16:18:42.324Z,1.25
2024-01-31T16:21:13.453Z,0.82
2024-01-31T16:23:47.649Z,0.20
2024-01-31T16:26:26.027Z,0.25
2024-01-31T16:28:57.274Z,0.70
2024-01-31T16:31:27.602Z,0.80
2024-01-31T16:34:06.172Z,0.40
2024-01-31T16:36:35.704Z,0.52
2024-01-31T16:39:12.330Z,0.82
2024-01-31T16:42:09.927Z,1.15
2024-01-31T16:44:44.695Z,2.42
2024-01-31T16:47:15.612Z,1.83
2024-01-31T16:49:43.203Z,3.08
2024-01-31T16:52:11.705Z,1.45
2024-01-31T16:54:40.629Z,2.03
2024-01-31T16:57:10.624Z,1.20
2024-01-31T16:59:39.073Z,2.47
2024-01-31T17:02:10.550Z,1.73
2024-01-31T17:04:38.824Z,2.97
2024-01-31T17:07:09.349Z,1.27
2024-01-31T17:09:38.888Z,2.10
2024-01-31T17:12:08.790Z,0.77
2024-01-31T17:14:43.924Z,0.55
2024-01-31T17:17:15.969Z,0.73
2024-01-31T17:19:44.533Z,1.00
2024-01-31T17:22:14.039Z,1.10
2024-01-31T17:24:42.868Z,1.33
2024-01-31T17:27:12.450Z,0.90
2024-01-31T17:29:42.276Z,0.88
2024-01-31T17:32:10.948Z,1.10
2024-01-31T17:34:39.706Z,1.08
2024-01-31T17:37:08.074Z,1.30
2024-01-31T17:39:36.401Z,1.40
2024-01-31T17:42:05.925Z,1.45
2024-01-31T17:44:35.689Z,1.05
2024-01-31T17:47:06.424Z,1.48
2024-01-31T17:49:35.283Z,0.80
2024-01-31T17:52:04.312Z,1.52
2024-01-31T17:54:32.888Z,1.25
2024-01-31T17:57:01.544Z,1.55
2024-01-31T17:59:33.108Z,1.02
2024-01-31T18:02:03.988Z,1.10
2024-01-31T18:04:37.221Z,2.83
2024-01-31T18:07:08.110Z,2.80
2024-01-31T18:09:36.837Z,3.00
2024-01-31T18:12:18.513Z,2.70
2024-01-31T18:14:53.510Z,2.58
2024-01-31T18:17:22.415Z,4.05
2024-01-31T18:19:58.759Z,5.50
2024-01-31T18:22:28.032Z,4.18
2024-01-31T18:25:00.610Z,2.83
2024-01-31T18:27:29.269Z,2.40
2024-01-31T18:29:57.719Z,2.40
2024-01-31T18:32:26.872Z,3.00
2024-01-31T18:34:56.740Z,3.27
2024-01-31T18:37:25.179Z,2.85
2024-01-31T18:39:53.998Z,3.50
2024-01-31T18:42:22.547Z,3.92
2024-01-31T18:44:51.667Z,2.80
2024-01-31T18:47:24.125Z,2.67
2024-01-31T18:49:52.637Z,1.80
2024-01-31T18:52:28.202Z,2.13
2024-01-31T18:54:57.583Z,2.50
2024-01-31T18:57:26.142Z,2.80
2024-01-31T18:59:54.652Z,2.00
2024-01-31T19:02:24.211Z,3.38
2024-01-31T19:05:00.193Z,2.45
2024-01-31T19:07:35.515Z,3.13
2024-01-31T19:10:06.244Z,2.60
2024-01-31T19:12:34.665Z,2.47
2024-01-31T19:15:04.999Z,2.83
2024-01-31T19:17:39.483Z,2.40
2024-01-31T19:20:14.634Z,2.63
2024-01-31T19:22:48.810Z,2.40
2024-01-31T19:25:17.310Z,2.17
2024-01-31T19:27:47.446Z,1.83
2024-01-31T19:35:14.403Z,2.22
2024-01-31T19:37:43.113Z,2.30
2024-01-31T19:40:13.611Z,3.08
2024-01-31T19:42:42.006Z,3.90
2024-01-31T19:45:12.439Z,3.22
2024-01-31T19:47:40.973Z,3.40
2024-01-31T19:50:09.847Z,2.78
2024-01-31T19:52:41.992Z,2.97
2024-01-31T19:55:11.991Z,2.67
2024-01-31T20:00:11.867Z,2.38
2024-01-31T20:02:43.259Z,2.88
2024-01-31T20:05:14.453Z,1.83
2024-01-31T20:07:42.959Z,2.83
2024-01-31T20:10:12.567Z,2.40
2024-01-31T20:12:42.723Z,2.60
2024-01-31T20:15:17.362Z,2.92
2024-01-31T20:17:47.276Z,3.65
2024-01-31T20:20:18.167Z,3.08
2024-01-31T20:22:49.882Z,3.22
2024-01-31T20:25:19.704Z,2.38
2024-01-31T20:27:53.150Z,2.83
2024-01-31T20:30:22.578Z,3.03
2024-01-31T20:32:52.429Z,3.17
2024-01-31T20:35:20.988Z,3.58
2024-01-31T20:37:49.578Z,2.15
2024-01-31T20:40:20.394Z,3.30
2024-01-31T20:42:50.203Z,2.70
2024-01-31T20:45:18.923Z,3.83
2024-01-31T20:47:47.526Z,2.72
2024-01-31T20:50:17.530Z,3.45
2024-01-31T20:52:47.315Z,4.18
2024-01-31T20:55:15.945Z,3.50
2024-01-31T20:57:44.380Z,3.38
2024-01-31T21:00:15.970Z,2.80
2024-01-31T21:02:45.168Z,3.03
2024-01-31T21:05:14.147Z,3.95
2024-01-31T21:07:42.911Z,2.78
2024-01-31T21:10:15.671Z,3.05
2024-01-31T21:12:48.462Z,3.70
2024-01-31T21:15:20.943Z,2.92
2024-01-31T21:17:49.511Z,3.88
2024-01-31T21:20:18.440Z,3.53
2024-01-31T21:22:49.203Z,3.58
2024-01-31T21:25:17.767Z,3.03
2024-01-31T21:27:46.473Z,4.70
2024-01-31T21:30:18.298Z,3.35
2024-01-31T21:32:54.294Z,3.40
2024-01-31T21:35:23.032Z,2.97
2024-01-31T21:37:53.040Z,3.25
2024-01-31T21:42:55.871Z,3.08
2024-01-31T21:45:24.633Z,2.47
2024-01-31T21:47:54.831Z,3.65
2024-01-31T21:50:23.211Z,3.60
2024-01-31T21:52:54.642Z,3.78
2024-01-31T21:55:23.322Z,3.17
2024-01-31T21:57:51.972Z,3.17
2024-01-31T22:00:22.103Z,1.88
2024-01-31T22:02:53.263Z,2.80
2024-01-31T22:05:24.237Z,2.83
2024-01-31T22:07:53.528Z,3.33
2024-01-31T22:10:21.839Z,3.63
2024-01-31T22:12:54.061Z,3.30
2024-01-31T22:15:26.990Z,2.80
2024-01-31T22:18:09.799Z,3.88
2024-01-31T22:20:39.933Z,3.13
2024-01-31T22:25:38.311Z,2.95
2024-01-31T22:28:10.249Z,4.13
2024-01-31T22:30:38.714Z,2.45
2024-01-31T22:33:11.158Z,4.35
2024-01-31T22:35:42.590Z,3.15
2024-01-31T22:38:11.151Z,2.35
2024-01-31T22:40:40.863Z,4.22
2024-01-31T22:43:12.013Z,4.55
2024-01-31T22:45:43.402Z,2.53
2024-01-31T22:48:15.503Z,2.47
2024-01-31T22:50:47.177Z,5.75
2024-01-31T22:53:15.675Z,5.28
2024-01-31T22:55:49.648Z,4.28
2024-01-31T22:58:20.566Z,5.25
2024-01-31T23:00:53.934Z,2.85
2024-01-31T23:03:26.946Z,4.88
2024-01-31T23:05:57.434Z,3.42
2024-01-31T23:08:28.169Z,3.75
2024-01-31T23:10:56.771Z,3.38
2024-01-31T23:13:30.324Z,3.55
2024-01-31T23:16:05.064Z,3.58
2024-01-31T23:18:38.507Z,5.05
2024-01-31T23:21:15.708Z,3.03
2024-01-31T23:23:44.988Z,2.80
2024-01-31T23:26:25.621Z,3.72
2024-01-31T23:28:54.329Z,4.22
2024-01-31T23:31:24.030Z,2.97
2024-01-31T23:33:52.930Z,2.08
2024-01-31T23:36:27.327Z,3.53
2024-01-31T23:38:55.861Z,2.95
2024-01-31T23:41:25.341Z,2.10
2024-01-31T23:43:53.956Z,2.13
2024-01-31T23:46:42.611Z,1.98
2024-01-31T23:49:14.174Z,2.80
2024-01-31T23:51:44.796Z,2.90
2024-01-31T23:54:13.845Z,3.20
2024-01-31T23:56:45.259Z,3.80
2024-01-31T23:59:16.363Z,2.58
